Etusivu
METAR-TAF:

METAR-TAF

Lentoasemat :

Linköping, Ruotsi

Sotilaslentoasema

Leveyspiiri: 58-24N, Pituuspiiri: 015-31E, korkeus merenpinnasta: 93 m

Tämänhetkinen sää

Tämä raportti tehtiin 36 minuuttia sitten, kello 23.20 UTC
Tuuli 1 kn eri suunnista
Lämpötila -2°C
Kosteus 93%
Ilmanpaine 992 hPa
Näkyvyys: 7000 m
utua

METAR: ESCF 172320Z AUTO VRB01KT 7000 BR FEW004/// BKN028/// OVC037/// M02/M03 Q0992

Aika: 00:56 (23:56 UTC)

Sääennuste

Tämä raportti tehtiin 6 tuntia ja 26 minuuttia sitten, kello 17.30 UTC
Ennuste voimassa 17. päivästä klo 18 UTC - 17. päivään klo 21 UTC
Tuuli 4 kn lännestä/lounaasta
Näkyvyys 10 km tai enemmän
Hajonneita pilviä 1500 ft:n korkeudessa
Todennäköisyys 40%
17. päivästä klo 18 UTC - 17. päivään klo 21 UTC
Näkyvyys: 6000 m
Hajonneita pilviä 800 ft:n korkeudessa
heikkoa lumisadetta

TAF: ESCF 171730Z 1718/1721 24004KT 9999 BKN015 PROB40 1718/1721 6000 -SN BKN008 RMK MIL

Säähavainnot ja -ennusteet yli 4000 lentoasemalta (METAR- ja TAF-raportit).

Käytössä olevat sääasemat on merkitty karttaan keltaisilla ja punaisilla pisteillä.

Aseta hiiri pisteen päälle nähdäksesi sääaseman nimen.

Klikkaa sitten nähdäksesi säähavainnot ja -ennusteet.

Kartan vaihtaminen: klikkaa mustalla rastilla varustettuja vihreitä pisteitä, niin voit zoomata sisään; viivalla varustettua vihreää pistettä, niin voit zoomata ulos tai vihreitä nuolia, niin pääset viereisille kartoille.


METAR-TAF: